Terminal Aerodrome Forecast
Issued by NWS

Home | Current Version | Previous Version | Text Only | Print | Product List | Glossary On
Versions: 1 2 3 4 5 6 7 8 9 10 11 12 13 14 15 16 17 18 19 20 21 22
000
FTUS41 KBOX 192109 AAA
TAFMHT
TAF AMD
KMHT 192109Z 1921/2018 32014G26KT P6SM SCT060
     FM200100 34009KT P6SM SKC
     FM200500 35005KT P6SM SKC
     FM201400 08004KT P6SM SKC=

USA.gov is the U.S. government's official web portal to all federal, state and local government web resources and services.